Time;durP1;ratioP1;P1;durP2;ratioP2;P2;SDS_P1;SDS_P2;PMS_P1;PMS_P2;Temp;Humidity;BMP_temperature;BMP_pressure;BME280_temperature;BME280_humidity;BME280_pressure;Samples;Min_cycle;Max_cycle;Signal;HPM_P1;HPM_P2
2023/04/21 00:00:07;;;;;;;16.47;7.40;;;8.40;99.90;;;;;;5072411;28;20068;-40
2023/04/21 00:02:38;;;;;;;13.60;7.68;;;8.40;99.90;;;;;;5057218;28;20066;-39
2023/04/21 00:05:06;;;;;;;16.13;7.30;;;8.40;99.90;;;;;;5055896;28;20052;-39
2023/04/21 00:07:32;;;;;;;15.00;7.28;;;8.40;99.90;;;;;;5055469;28;20078;-40
2023/04/21 00:09:58;;;;;;;;;;;8.40;99.90;;;;;;5072771;28;20053;-40
2023/04/21 00:12:24;;;;;;;14.55;7.82;;;8.40;99.90;;;;;;5072047;28;19986;-40
2023/04/21 00:14:49;;;;;;;16.50;7.97;;;8.30;99.90;;;;;;5055118;28;20048;-40
2023/04/21 00:17:15;;;;;;;13.03;7.80;;;8.30;99.90;;;;;;5055605;28;20525;-40
2023/04/21 00:19:41;;;;;;;12.83;7.03;;;8.30;99.90;;;;;;5072150;28;20506;-40
2023/04/21 00:22:10;;;;;;;17.30;8.53;;;8.30;99.90;;;;;;5073156;28;20469;-40
2023/04/21 00:24:36;;;;;;;13.70;7.78;;;8.20;99.90;;;;;;5055726;28;20037;-40
2023/04/21 00:27:02;;;;;;;12.77;7.67;;;8.20;99.90;;;;;;5072034;28;20165;-40
2023/04/21 00:29:28;;;;;;;14.10;8.03;;;8.20;99.90;;;;;;5055354;28;20052;-40
2023/04/21 00:31:54;;;;;;;13.97;8.33;;;8.20;99.90;;;;;;5072725;28;20044;-39
2023/04/21 00:34:19;;;;;;;18.03;8.60;;;8.10;99.90;;;;;;5071973;28;20040;-40
2023/04/21 00:36:45;;;;;;;12.67;7.97;;;8.10;99.90;;;;;;5055111;28;20105;-40
2023/04/21 00:39:11;;;;;;;15.60;7.63;;;8.10;99.90;;;;;;5072173;28;20063;-40
2023/04/21 00:41:38;;;;;;;16.23;8.20;;;8.10;99.90;;;;;;5038629;28;20394;-39
2023/04/21 00:44:06;;;;;;;14.70;7.93;;;8.10;99.90;;;;;;5073714;28;20083;-40
2023/04/21 00:46:32;;;;;;;13.75;8.13;;;8.10;99.90;;;;;;5076602;28;20560;-39
2023/04/21 00:48:59;;;;;;;14.63;8.75;;;8.10;99.90;;;;;;5075673;28;20145;-40
2023/04/21 00:51:28;;;;;;;15.52;7.82;;;8.10;99.90;;;;;;5075396;28;20121;-40
2023/04/21 00:53:55;;;;;;;16.48;7.40;;;8.10;99.90;;;;;;5058696;28;20179;-40
2023/04/21 00:56:21;;;;;;;;;;;8.00;99.90;;;;;;5058887;28;20119;-40
2023/04/21 00:58:47;;;;;;;15.13;8.77;;;8.10;99.90;;;;;;5058359;28;19971;-40
2023/04/21 01:01:13;;;;;;;14.43;8.05;;;8.00;99.90;;;;;;5058768;28;20145;-40
2023/04/21 01:03:40;;;;;;;16.90;8.20;;;8.00;99.90;;;;;;5075131;28;20495;-39
2023/04/21 01:06:06;;;;;;;;;;;8.00;99.90;;;;;;5075533;28;20325;-40
2023/04/21 01:08:32;;;;;;;15.27;8.50;;;8.00;99.90;;;;;;5058339;28;20376;-39
2023/04/21 01:10:58;;;;;;;15.13;7.77;;;8.00;99.90;;;;;;5074961;28;20137;-40
2023/04/21 01:13:23;;;;;;;13.60;8.17;;;8.00;99.90;;;;;;5058438;28;20058;-39
2023/04/21 01:15:49;;;;;;;15.00;8.47;;;8.00;99.90;;;;;;5075122;28;20136;-39
2023/04/21 01:18:17;;;;;;;13.33;7.67;;;7.90;99.90;;;;;;5075081;28;20088;-39
2023/04/21 01:20:43;;;;;;;17.88;9.25;;;7.90;99.90;;;;;;5074771;28;20322;-39
2023/04/21 01:23:09;;;;;;;14.70;7.82;;;7.90;99.90;;;;;;5058236;28;20040;-39
2023/04/21 01:25:35;;;;;;;15.77;7.68;;;7.80;99.90;;;;;;5074953;28;20052;-40
2023/04/21 01:28:02;;;;;;;15.43;7.67;;;7.80;99.90;;;;;;5074747;28;20105;-39
2023/04/21 01:30:27;;;;;;;14.55;8.07;;;7.80;99.90;;;;;;5074891;28;20290;-39
2023/04/21 01:32:53;;;;;;;14.67;8.23;;;7.80;99.90;;;;;;5074949;28;20040;-39
2023/04/21 01:35:19;;;;;;;14.93;7.93;;;7.80;99.90;;;;;;5075568;28;20123;-39
2023/04/21 01:37:45;;;;;;;14.87;7.60;;;7.70;99.90;;;;;;5074178;28;20052;-39
2023/04/21 01:40:11;;;;;;;15.93;8.43;;;7.70;99.90;;;;;;5074394;28;20063;-39
2023/04/21 01:42:39;;;;;;;15.30;8.20;;;7.70;99.90;;;;;;5058735;28;20044;-39
2023/04/21 01:45:05;;;;;;;13.82;7.57;;;7.70;99.90;;;;;;5074510;28;20088;-39
2023/04/21 01:47:31;;;;;;;13.82;7.63;;;7.70;99.90;;;;;;5074514;28;20426;-39
2023/04/21 01:49:57;;;;;;;17.00;8.60;;;7.70;99.90;;;;;;5074347;28;20043;-39
2023/04/21 01:52:22;;;;;;;16.80;8.63;;;7.70;99.90;;;;;;5074317;28;20045;-40
2023/04/21 01:54:48;;;;;;;16.07;8.93;;;7.70;99.90;;;;;;5057158;28;20086;-39
2023/04/21 01:57:14;;;;;;;19.20;9.33;;;7.70;99.90;;;;;;5074296;28;20135;-40
2023/04/21 01:59:40;;;;;;;15.55;8.75;;;7.70;99.90;;;;;;5057692;28;20075;-40
2023/04/21 02:02:06;;;;;;;15.93;8.33;;;7.70;99.90;;;;;;5074386;28;20484;-40
2023/04/21 02:04:32;;;;;;;16.80;8.83;;;7.70;99.90;;;;;;5074081;28;20101;-40
2023/04/21 02:06:58;;;;;;;15.53;8.30;;;7.70;99.90;;;;;;5074184;28;20044;-39
2023/04/21 02:09:23;;;;;;;16.33;8.77;;;7.70;99.90;;;;;;5057155;28;20131;-41
2023/04/21 02:11:49;;;;;;;18.53;8.57;;;7.70;99.90;;;;;;5057367;28;20565;-40
2023/04/21 02:14:15;;;;;;;17.03;8.33;;;7.70;99.90;;;;;;5057449;28;20399;-40
2023/04/21 02:16:40;;;;;;;15.23;7.93;;;7.70;99.90;;;;;;5040633;28;20131;-40
2023/04/21 02:19:06;;;;;;;15.27;8.67;;;7.70;99.90;;;;;;5057262;28;20044;-40
2023/04/21 02:21:32;;;;;;;17.87;9.50;;;7.60;99.90;;;;;;5073539;28;20048;-39
2023/04/21 02:23:57;;;;;;;16.27;8.50;;;7.70;99.90;;;;;;5057240;28;20083;-41
2023/04/21 02:26:23;;;;;;;13.97;8.13;;;7.60;99.90;;;;;;5057043;28;20372;-40
2023/04/21 02:28:50;;;;;;;17.67;8.73;;;7.60;99.90;;;;;;5057099;28;20078;-40
2023/04/21 02:31:18;;;;;;;15.68;8.88;;;7.60;99.90;;;;;;5057085;28;20052;-40
2023/04/21 02:33:44;;;;;;;15.23;8.50;;;7.60;99.90;;;;;;5073093;28;20036;-39
2023/04/21 02:36:10;;;;;;;16.52;8.82;;;7.60;99.90;;;;;;5056616;28;20484;-40
2023/04/21 02:38:36;;;;;;;16.75;8.70;;;7.60;99.90;;;;;;5073047;28;20483;-40
2023/04/21 02:41:02;;;;;;;15.07;8.43;;;7.60;99.90;;;;;;5073212;28;20166;-40
2023/04/21 02:43:28;;;;;;;17.00;8.70;;;7.60;99.90;;;;;;5073363;28;20048;-40
2023/04/21 02:45:53;;;;;;;18.20;9.00;;;7.60;99.90;;;;;;5090048;28;20044;-40
2023/04/21 02:48:21;;;;;;;14.27;8.33;;;7.60;99.90;;;;;;5073277;28;20041;-40
2023/04/21 02:50:52;;;;;;;14.85;8.75;;;7.60;99.90;;;;;;5074284;28;20395;-39
2023/04/21 02:53:20;;;;;;;18.20;9.20;;;7.60;99.90;;;;;;5072857;28;20119;-40
2023/04/21 02:55:46;;;;;;;15.80;8.48;;;7.60;99.90;;;;;;5073001;28;20499;-40
2023/04/21 02:58:13;;;;;;;14.20;8.10;;;7.50;99.90;;;;;;5057053;28;20040;-40
2023/04/21 03:00:39;;;;;;;15.82;8.32;;;7.60;99.90;;;;;;5072970;28;20550;-40
2023/04/21 03:03:05;;;;;;;15.48;8.32;;;7.50;99.90;;;;;;5056164;28;20115;-40
2023/04/21 03:05:30;;;;;;;15.10;8.32;;;7.50;99.90;;;;;;5055882;28;20048;-40
2023/04/21 03:07:56;;;;;;;15.50;8.83;;;7.50;99.90;;;;;;5072637;28;20044;-40
2023/04/21 03:10:22;;;;;;;15.50;8.90;;;7.50;99.90;;;;;;5056298;28;20048;-40
2023/04/21 03:12:47;;;;;;;15.10;7.93;;;7.50;99.90;;;;;;5056318;28;20032;-40
2023/04/21 03:15:13;;;;;;;15.93;7.03;;;7.50;99.90;;;;;;5072954;28;20479;-40
2023/04/21 03:17:40;;;;;;;14.63;7.17;;;7.50;99.90;;;;;;5056432;28;20487;-40
2023/04/21 03:20:07;;;;;;;15.02;7.25;;;7.50;99.90;;;;;;5072866;28;20079;-40
2023/04/21 03:22:36;;;;;;;15.32;7.85;;;7.50;99.90;;;;;;5072558;28;20051;-40
2023/04/21 03:25:02;;;;;;;16.15;8.48;;;7.50;99.90;;;;;;5072890;28;20048;-40
2023/04/21 03:27:27;;;;;;;16.17;8.10;;;7.50;99.90;;;;;;5056116;28;20131;-40
2023/04/21 03:29:53;;;;;;;12.43;7.50;;;7.50;99.90;;;;;;5072583;28;20041;-40
2023/04/21 03:32:19;;;;;;;15.40;8.37;;;7.50;99.90;;;;;;5072822;28;20131;-40
2023/04/21 03:34:45;;;;;;;14.73;7.80;;;7.50;99.90;;;;;;5039198;28;20083;-40
2023/04/21 03:37:10;;;;;;;14.13;7.77;;;7.50;99.90;;;;;;5055490;28;20088;-40
2023/04/21 03:39:36;;;;;;;13.67;7.57;;;7.50;99.90;;;;;;5056235;28;20155;-40
2023/04/21 03:42:03;;;;;;;13.77;7.73;;;7.50;99.90;;;;;;5056437;28;20098;-40
2023/04/21 03:44:29;;;;;;;17.08;7.45;;;7.50;99.90;;;;;;5056149;28;20132;-41
2023/04/21 03:46:56;;;;;;;13.00;7.30;;;7.60;99.90;;;;;;5072653;28;20135;-40
2023/04/21 03:49:22;;;;;;;12.68;7.45;;;7.50;99.90;;;;;;5056175;28;20044;-39
2023/04/21 03:51:48;;;;;;;14.43;7.37;;;7.60;99.90;;;;;;5055507;28;20446;-40
2023/04/21 03:54:14;;;;;;;12.97;7.20;;;7.60;99.90;;;;;;5072526;28;20044;-40
2023/04/21 03:56:39;;;;;;;14.13;7.53;;;7.60;99.90;;;;;;5072515;28;20101;-40
2023/04/21 03:59:05;;;;;;;13.53;7.30;;;7.60;99.90;;;;;;5072536;28;20090;-40
2023/04/21 04:01:32;;;;;;;16.50;6.93;;;7.60;99.90;;;;;;5072609;28;20135;-40
2023/04/21 04:03:57;;;;;;;13.90;7.55;;;7.60;99.90;;;;;;5072218;28;20041;-40
2023/04/21 04:06:23;;;;;;;15.67;8.13;;;7.60;99.90;;;;;;5055595;28;20044;-40
2023/04/21 04:08:49;;;;;;;16.50;6.87;;;7.60;99.90;;;;;;5072086;28;20044;-40
2023/04/21 04:11:14;;;;;;;19.17;7.77;;;7.60;99.90;;;;;;5055723;28;20087;-40
2023/04/21 04:13:40;;;;;;;13.13;6.63;;;7.60;99.90;;;;;;5055664;28;20047;-39
2023/04/21 04:16:06;;;;;;;14.67;7.33;;;7.60;99.90;;;;;;5072389;28;20083;-39
2023/04/21 04:18:32;;;;;;;14.50;7.80;;;7.60;99.90;;;;;;5073463;28;20055;-40
2023/04/21 04:20:57;;;;;;;13.53;7.13;;;7.60;99.90;;;;;;5076002;28;20055;-40
2023/04/21 04:23:23;;;;;;;16.63;7.13;;;7.70;99.90;;;;;;5075991;28;20048;-40
2023/04/21 04:25:50;;;;;;;13.43;6.63;;;7.70;99.90;;;;;;5042803;28;20040;-39
2023/04/21 04:28:16;;;;;;;12.95;6.82;;;7.70;99.90;;;;;;5042798;28;20048;-40
2023/04/21 04:30:42;;;;;;;16.33;8.07;;;7.80;99.90;;;;;;5059219;28;20051;-40
2023/04/21 04:33:08;;;;;;;12.25;6.72;;;7.80;99.90;;;;;;5075756;28;20155;-39
2023/04/21 04:35:34;;;;;;;11.10;6.28;;;7.80;99.90;;;;;;5076654;28;20071;-40
2023/04/21 04:38:01;;;;;;;13.33;6.97;;;7.80;99.90;;;;;;5075263;28;20164;-40
2023/04/21 04:40:27;;;;;;;12.93;7.25;;;7.80;99.90;;;;;;5059165;28;20287;-40
2023/04/21 04:42:53;;;;;;;12.73;6.95;;;7.90;99.90;;;;;;5075641;28;20060;-40
2023/04/21 04:45:21;;;;;;;13.00;8.40;;;7.90;99.90;;;;;;5075844;28;20434;-39
2023/04/21 04:47:48;;;;;;;16.95;8.32;;;7.90;99.90;;;;;;5075246;28;20048;-39
2023/04/21 04:50:13;;;;;;;14.48;8.23;;;8.00;99.90;;;;;;5058583;28;20063;-39
2023/04/21 04:52:39;;;;;;;15.60;7.67;;;8.00;99.90;;;;;;5075362;28;20487;-39
2023/04/21 04:55:06;;;;;;;13.53;7.70;;;8.00;99.90;;;;;;5058861;28;20094;-39
2023/04/21 04:57:31;;;;;;;13.57;7.80;;;8.10;99.90;;;;;;5075318;28;20048;-39
2023/04/21 04:59:57;;;;;;;13.80;7.50;;;8.10;99.90;;;;;;5076303;28;20062;-40
2023/04/21 05:02:23;;;;;;;15.90;6.90;;;8.20;99.90;;;;;;5058608;28;20517;-39
2023/04/21 05:04:49;;;;;;;12.87;6.43;;;8.20;99.90;;;;;;5075048;28;20532;-40
2023/04/21 05:07:15;;;;;;;15.13;6.55;;;8.30;99.90;;;;;;5058544;28;20045;-40
2023/04/21 05:09:40;;;;;;;10.93;5.97;;;8.30;99.90;;;;;;5075272;28;20108;-40
2023/04/21 05:12:06;;;;;;;13.40;6.20;;;8.40;99.90;;;;;;5075052;28;20052;-40
2023/04/21 05:14:32;;;;;;;12.20;6.40;;;8.50;99.90;;;;;;5058399;28;20109;-40
2023/04/21 05:16:58;;;;;;;13.20;5.80;;;8.60;99.90;;;;;;5075099;28;20147;-40
2023/04/21 05:19:24;;;;;;;12.67;6.37;;;8.60;99.90;;;;;;5075746;28;20059;-40
2023/04/21 05:21:50;;;;;;;12.15;6.18;;;8.60;99.90;;;;;;5074712;28;20464;-40
2023/04/21 05:24:21;;;;;;;11.33;6.20;;;8.70;99.90;;;;;;5075124;28;20087;-40
2023/04/21 05:26:47;;;;;;;11.45;5.88;;;8.70;99.90;;;;;;5059166;28;20091;-40
2023/04/21 05:29:13;;;;;;;11.80;5.97;;;8.80;99.90;;;;;;5074092;28;20084;-40
2023/04/21 05:31:39;;;;;;;14.07;6.57;;;8.90;99.90;;;;;;5074627;28;20293;-44
2023/04/21 05:34:05;;;;;;;13.13;6.90;;;8.90;99.90;;;;;;5074479;28;20127;-40
2023/04/21 05:36:31;;;;;;;11.57;6.57;;;8.90;99.90;;;;;;5074593;28;20502;-40
2023/04/21 05:38:57;;;;;;;9.57;5.20;;;9.00;99.90;;;;;;5074732;28;20287;-40
2023/04/21 05:41:22;;;;;;;11.67;5.97;;;9.00;99.90;;;;;;5058084;28;20051;-40
2023/04/21 05:43:48;;;;;;;10.23;5.70;;;9.10;99.90;;;;;;5074082;28;20049;-40
2023/04/21 05:46:14;;;;;;;13.97;5.90;;;9.20;99.90;;;;;;5074504;28;20048;-40
2023/04/21 05:48:40;;;;;;;14.10;5.77;;;9.10;99.90;;;;;;5074317;28;20380;-40
2023/04/21 05:51:14;;;;;;;11.75;6.35;;;9.10;99.90;;;;;;5074498;28;20058;-40
2023/04/21 05:53:41;;;;;;;10.88;5.70;;;9.20;99.90;;;;;;5057831;28;20040;-40
2023/04/21 05:56:11;;;;;;;9.95;4.97;;;9.20;99.90;;;;;;5074206;28;20479;-40
2023/04/21 05:58:37;;;;;;;10.45;5.47;;;9.30;99.90;;;;;;5075145;28;20049;-40
2023/04/21 06:01:04;;;;;;;9.30;4.95;;;9.30;99.90;;;;;;5057433;28;20048;-40
2023/04/21 06:03:30;;;;;;;9.07;5.30;;;9.40;99.90;;;;;;5074173;28;20048;-40
2023/04/21 06:05:56;;;;;;;;;;;9.70;99.90;;;;;;5074729;28;20045;-41
2023/04/21 06:08:22;;;;;;;9.60;5.43;;;10.00;99.90;;;;;;5073962;28;19943;-41
2023/04/21 06:10:48;;;;;;;12.50;5.53;;;10.50;99.90;;;;;;5074113;28;20469;-40
2023/04/21 06:13:14;;;;;;;11.50;5.17;;;10.90;99.90;;;;;;5040668;28;20135;-40
2023/04/21 06:15:40;;;;;;;12.35;4.75;;;11.00;99.90;;;;;;5073369;28;20048;-40
2023/04/21 06:18:06;;;;;;;9.60;5.40;;;10.80;99.90;;;;;;5073959;28;20472;-40
2023/04/21 06:20:31;;;;;;;14.63;5.23;;;10.60;99.90;;;;;;5073772;28;20372;-40
2023/04/21 06:22:57;;;;;;;8.37;4.43;;;10.50;99.90;;;;;;5073866;28;20037;-40
2023/04/21 06:25:23;;;;;;;10.87;5.67;;;10.50;99.90;;;;;;5056999;28;20048;-40
2023/04/21 06:27:49;;;;;;;9.27;4.97;;;10.50;99.90;;;;;;5056835;28;20059;-40
2023/04/21 06:30:14;;;;;;;11.80;5.37;;;10.50;99.90;;;;;;5073453;28;20052;-41
2023/04/21 06:32:40;;;;;;;8.27;5.00;;;10.80;99.90;;;;;;5074006;28;20045;-40
2023/04/21 06:35:06;;;;;;;9.47;5.33;;;11.30;99.90;;;;;;5057260;28;20043;-41
2023/04/21 06:37:32;;;;;;;11.23;5.25;;;11.90;99.90;;;;;;5057105;28;20095;-41
2023/04/21 06:39:58;;;;;;;;;;;12.50;99.90;;;;;;5073416;28;20048;-39
2023/04/21 06:42:24;;;;;;;8.95;4.32;;;13.00;99.90;;;;;;5073585;28;19920;-40
2023/04/21 06:44:50;;;;;;;8.30;4.60;;;13.50;99.90;;;;;;5073196;28;20574;-41
2023/04/21 06:47:16;;;;;;;7.60;4.17;;;13.90;99.90;;;;;;5056749;28;20079;-41
2023/04/21 06:49:41;;;;;;;9.70;4.40;;;14.20;99.90;;;;;;5056556;28;20142;-41
2023/04/21 06:52:07;;;;;;;8.40;4.65;;;14.40;99.90;;;;;;5073126;28;20044;-41
2023/04/21 06:54:33;;;;;;;10.95;4.78;;;14.50;99.90;;;;;;5073036;28;20153;-41
2023/04/21 06:56:59;;;;;;;8.37;4.00;;;14.60;99.90;;;;;;5056521;28;20401;-41
2023/04/21 06:59:24;;;;;;;9.77;4.77;;;14.80;99.90;;;;;;5056475;28;20044;-41
2023/04/21 07:01:51;;;;;;;8.80;4.45;;;14.70;99.90;;;;;;5073161;28;20044;-40
2023/04/21 07:04:20;;;;;;;12.05;4.78;;;14.50;99.90;;;;;;5072873;28;20053;-41
2023/04/21 07:06:47;;;;;;;9.77;5.30;;;14.20;99.90;;;;;;5073061;28;20072;-41
2023/04/21 07:09:13;;;;;;;11.13;4.80;;;13.90;99.90;;;;;;5056369;28;20055;-41
2023/04/21 07:11:39;;;;;;;10.25;4.55;;;13.80;99.90;;;;;;5039712;28;20395;-41
2023/04/21 07:14:05;;;;;;;9.57;4.97;;;13.60;99.90;;;;;;5072494;28;20036;-41
2023/04/21 07:16:31;;;;;;;7.38;4.13;;;13.50;99.90;;;;;;5040017;28;20051;-41
2023/04/21 07:18:57;;;;;;;9.43;4.20;;;13.60;99.90;;;;;;5073041;28;20127;-41
2023/04/21 07:21:23;;;;;;;9.35;4.40;;;13.50;99.90;;;;;;5039670;28;20048;-40
2023/04/21 07:23:49;;;;;;;9.27;4.68;;;13.40;99.90;;;;;;5055991;28;20048;-41
2023/04/21 07:26:14;;;;;;;8.47;4.20;;;13.30;99.90;;;;;;5056264;28;20040;-41
2023/04/21 07:28:40;;;;;;;8.33;4.33;;;13.30;99.90;;;;;;5072723;28;20127;-41
2023/04/21 07:31:06;;;;;;;11.23;5.80;;;13.30;99.90;;;;;;5056153;28;20048;-41
2023/04/21 07:33:32;;;;;;;11.02;5.20;;;13.40;99.90;;;;;;5072811;28;20476;-40
2023/04/21 07:35:58;;;;;;;11.47;4.37;;;13.40;99.90;;;;;;5089601;28;20048;-40
2023/04/21 07:38:23;;;;;;;10.10;4.93;;;13.40;99.90;;;;;;5072283;28;20057;-40
2023/04/21 07:40:49;;;;;;;9.70;5.43;;;13.20;99.90;;;;;;5072488;28;20048;-41
2023/04/21 07:43:15;;;;;;;10.45;4.00;;;13.10;99.90;;;;;;5073418;28;20049;-40
2023/04/21 07:45:41;;;;;;;9.87;5.50;;;13.00;99.90;;;;;;5073604;28;20044;-39
2023/04/21 07:48:07;;;;;;;10.30;5.20;;;12.90;99.90;;;;;;5073592;28;20124;-39
2023/04/21 07:50:36;;;;;;;10.37;4.77;;;12.80;99.90;;;;;;5072496;28;20479;-40
2023/04/21 07:53:01;;;;;;;7.68;4.40;;;12.70;99.90;;;;;;5075520;28;20102;-40
2023/04/21 07:55:28;;;;;;;9.25;4.82;;;12.70;99.90;;;;;;5077530;28;20044;-40
2023/04/21 07:57:54;;;;;;;10.35;4.57;;;12.70;99.90;;;;;;5076467;28;20098;-39
2023/04/21 08:00:20;;;;;;;11.23;5.47;;;12.70;99.90;;;;;;5076583;28;20048;-40
2023/04/21 08:02:45;;;;;;;8.13;4.50;;;12.70;99.90;;;;;;5076575;28;20047;-40
2023/04/21 08:05:11;;;;;;;10.25;4.95;;;12.70;99.90;;;;;;5077564;28;20483;-40
2023/04/21 08:07:37;;;;;;;11.13;5.00;;;12.70;99.90;;;;;;5093368;28;20041;-39
2023/04/21 08:10:04;;;;;;;9.88;4.82;;;12.80;99.90;;;;;;5077340;28;20053;-40
2023/04/21 08:12:29;;;;;;;9.57;4.88;;;12.80;99.90;;;;;;5076028;28;20044;-40
2023/04/21 08:14:55;;;;;;;8.83;5.07;;;12.80;99.90;;;;;;5042771;28;20041;-40
2023/04/21 08:17:21;;;;;;;13.03;4.83;;;12.90;99.90;;;;;;5077174;28;20372;-40
2023/04/21 08:19:46;;;;;;;11.33;5.00;;;13.00;99.90;;;;;;5077136;28;20392;-40
2023/04/21 08:22:12;;;;;;;10.17;4.57;;;13.00;99.90;;;;;;5059196;28;20044;-40
2023/04/21 08:24:37;;;;;;;10.00;4.50;;;13.10;99.90;;;;;;5075875;28;20051;-40
2023/04/21 08:27:03;;;;;;;11.53;5.80;;;13.20;99.90;;;;;;5075670;28;20086;-39
2023/04/21 08:29:29;;;;;;;8.67;5.23;;;13.20;99.90;;;;;;5076920;28;20051;-39
2023/04/21 08:31:55;;;;;;;13.45;5.75;;;13.30;99.90;;;;;;5076065;28;20044;-40
2023/04/21 08:34:21;;;;;;;9.13;4.87;;;13.30;99.90;;;;;;5076108;28;20048;-40
2023/04/21 08:36:46;;;;;;;6.85;4.47;;;13.40;99.90;;;;;;5076672;28;20056;-40
2023/04/21 08:39:15;;;;;;;12.90;5.77;;;13.40;99.90;;;;;;5076858;28;20462;-40
2023/04/21 08:41:41;;;;;;;7.15;4.38;;;13.50;99.90;;;;;;5076601;28;20082;-40
2023/04/21 08:44:08;;;;;;;8.25;4.70;;;13.60;99.90;;;;;;5076679;28;20480;-39
2023/04/21 08:46:35;;;;;;;9.13;5.60;;;13.60;99.90;;;;;;5076662;28;20049;-40
2023/04/21 08:49:01;;;;;;;15.07;5.10;;;13.70;99.90;;;;;;5076571;28;20052;-40
2023/04/21 08:51:27;;;;;;;10.35;5.32;;;13.80;99.90;;;;;;5076606;28;20044;-40
2023/04/21 08:53:56;;;;;;;10.57;4.50;;;13.90;99.90;;;;;;5075527;28;20049;-40
2023/04/21 08:56:25;;;;;;;9.35;4.85;;;13.90;99.90;;;;;;5092295;28;20048;-40
2023/04/21 08:58:50;;;;;;;8.93;4.70;;;14.00;99.90;;;;;;5076398;28;20054;-40
2023/04/21 09:01:16;;;;;;;11.45;5.40;;;14.00;99.90;;;;;;5075227;28;20044;-40
2023/04/21 09:03:42;;;;;;;8.43;4.60;;;14.00;99.90;;;;;;5057800;28;20041;-40
2023/04/21 09:06:09;;;;;;;8.40;5.20;;;14.10;99.90;;;;;;5076116;28;20291;-40
2023/04/21 09:08:41;;;;;;;9.60;5.57;;;14.20;99.90;;;;;;5075042;28;20548;-40
2023/04/21 09:11:07;;;;;;;11.68;4.80;;;14.30;99.90;;;;;;5075241;28;20052;-40
2023/04/21 09:13:35;;;;;;;9.27;4.37;;;14.40;99.90;;;;;;5058218;28;20131;-40
2023/04/21 09:16:15;;;;;;;8.13;4.45;;;14.40;99.90;;;;;;5074895;28;20076;-40
2023/04/21 09:18:43;;;;;;;9.25;4.88;;;14.50;99.90;;;;;;5076283;28;20067;-40
2023/04/21 09:21:10;;;;;;;11.07;4.70;;;14.50;99.90;;;;;;5058546;28;20479;-40
2023/04/21 09:23:44;;;;;;;8.57;4.13;;;14.60;99.90;;;;;;5075989;28;20052;-40
2023/04/21 09:26:10;;;;;;;7.65;4.53;;;14.70;99.90;;;;;;5075037;28;20060;-40
2023/04/21 09:28:36;;;;;;;8.05;4.53;;;14.70;99.90;;;;;;5075979;28;20056;-40
2023/04/21 09:31:01;;;;;;;7.05;4.20;;;14.80;99.90;;;;;;5074837;28;20048;-40
2023/04/21 09:33:27;;;;;;;9.80;3.80;;;14.90;99.90;;;;;;5074863;28;20059;-40
2023/04/21 09:35:53;;;;;;;7.43;4.10;;;15.00;99.90;;;;;;5074331;28;20051;-40
2023/04/21 09:38:21;;;;;;;9.05;4.32;;;15.00;99.90;;;;;;5074372;28;20491;-40
2023/04/21 09:40:57;;;;;;;7.68;4.20;;;15.10;99.90;;;;;;5075718;28;20092;-40
2023/04/21 09:43:22;;;;;;;8.00;4.45;;;15.20;99.90;;;;;;5075636;28;20052;-40
2023/04/21 09:45:48;;;;;;;7.90;4.15;;;15.30;99.90;;;;;;5075413;28;20488;-40
2023/04/21 09:48:16;;;;;;;9.73;4.25;;;15.30;99.90;;;;;;5075295;28;20154;-41
2023/04/21 09:50:44;;;;;;;8.65;4.38;;;15.50;99.90;;;;;;5075437;28;20055;-40
2023/04/21 09:53:15;;;;;;;10.02;4.63;;;15.50;99.90;;;;;;5074131;28;20048;-40
2023/04/21 09:55:41;;;;;;;9.82;4.25;;;15.60;99.90;;;;;;5075272;28;20086;-40
2023/04/21 09:58:10;;;;;;;10.48;4.55;;;15.70;99.90;;;;;;5074365;28;20059;-40
2023/04/21 10:00:38;;;;;;;9.00;4.05;;;15.80;99.90;;;;;;5074201;28;20496;-40
2023/04/21 10:03:09;;;;;;;9.00;4.25;;;15.90;99.90;;;;;;5073844;28;20551;-40
2023/04/21 10:05:35;;;;;;;8.35;4.35;;;16.10;99.90;;;;;;5075117;28;20044;-40
2023/04/21 10:08:01;;;;;;;8.32;4.00;;;16.20;99.90;;;;;;5075078;28;20406;-40
2023/04/21 10:10:30;;;;;;;6.25;4.00;;;16.40;99.90;;;;;;5075111;28;20048;-40
2023/04/21 10:12:57;;;;;;;7.97;4.15;;;16.40;99.90;;;;;;5073996;28;20515;-40
2023/04/21 10:15:32;;;;;;;;;;;16.40;99.90;;;;;;5075039;28;20041;-41
2023/04/21 10:18:23;;;;;;;8.93;4.57;;;16.40;99.90;;;;;;5075040;28;19982;-40
2023/04/21 10:21:10;;;;;;;9.82;4.40;;;16.50;99.90;;;;;;5074881;28;20044;-41
2023/04/21 10:23:45;;;;;;;7.00;4.15;;;16.60;99.90;;;;;;5074618;28;20048;-40
2023/04/21 10:26:23;;;;;;;8.82;4.35;;;16.70;99.90;;;;;;5074738;28;20079;-40
2023/04/21 10:29:00;;;;;;;8.02;4.22;;;16.80;99.90;;;;;;5073753;28;20057;-40
2023/04/21 10:31:30;;;;;;;7.05;3.60;;;16.90;99.90;;;;;;5074599;28;20483;-40
2023/04/21 10:34:05;;;;;;;8.15;4.18;;;17.00;99.90;;;;;;5074315;28;20067;-40
2023/04/21 10:36:34;;;;;;;6.70;3.88;;;17.00;99.90;;;;;;5074151;28;20087;-41
2023/04/21 10:39:04;;;;;;;7.93;3.95;;;17.00;99.90;;;;;;5074490;28;20096;-40
2023/04/21 10:41:32;;;;;;;8.20;3.78;;;17.10;99.90;;;;;;5074429;28;20052;-40
2023/04/21 10:44:14;;;;;;;9.35;4.10;;;17.10;99.90;;;;;;5090203;28;20552;-41
2023/04/21 10:46:51;;;;;;;7.15;3.78;;;17.20;99.90;;;;;;5074169;28;20060;-41
2023/04/21 10:49:23;;;;;;;7.80;3.72;;;17.30;99.90;;;;;;5074416;28;20052;-41
2023/04/21 10:51:58;;;;;;;8.73;4.22;;;17.40;99.90;;;;;;5074256;28;20048;-41
2023/04/21 10:54:25;;;;;;;6.40;3.08;;;17.40;99.90;;;;;;5074062;28;20127;-40
2023/04/21 10:56:52;;;;;;;6.60;3.55;;;17.60;99.90;;;;;;5074039;28;20051;-40
2023/04/21 10:59:19;;;;;;;6.57;3.75;;;17.60;99.90;;;;;;5074011;28;20048;-40
2023/04/21 11:01:45;;;;;;;10.15;3.83;;;17.70;99.90;;;;;;5073125;28;20052;-40
2023/04/21 11:04:19;;;;;;;8.73;3.33;;;17.80;99.90;;;;;;5073245;28;20053;-40
2023/04/21 11:07:12;;;;;;;6.47;3.70;;;17.90;99.90;;;;;;5073035;28;20487;-40
2023/04/21 11:09:39;;;;;;;7.43;4.07;;;17.90;99.90;;;;;;5067653;28;20513;-41
2023/04/21 11:12:11;;;;;;;9.82;3.78;;;18.00;99.90;;;;;;5073952;28;20051;-41
2023/04/21 11:14:38;;;;;;;8.32;3.38;;;18.00;99.90;;;;;;5073513;28;20494;-40
2023/04/21 11:17:09;;;;;;;9.00;3.38;;;18.00;99.90;;;;;;5072836;28;20087;-40
2023/04/21 11:19:36;;;;;;;9.80;3.47;;;18.10;99.90;;;;;;5073910;28;20428;-40
2023/04/21 11:22:02;;;;;;;;;;;18.10;99.90;;;;;;5074094;28;20056;-41
2023/04/21 11:24:28;;;;;;;7.07;2.90;;;18.20;99.90;;;;;;5089152;28;19931;-41
2023/04/21 11:26:54;;;;;;;7.15;3.15;;;18.30;99.90;;;;;;5072368;28;20045;-40
2023/04/21 11:29:19;;;;;;;9.35;3.53;;;18.40;99.90;;;;;;5073713;28;20041;-41
2023/04/21 11:31:47;;;;;;;9.18;3.83;;;18.40;99.90;;;;;;5073701;28;20079;-40
2023/04/21 11:34:15;;;;;;;7.43;2.90;;;18.50;99.90;;;;;;5073510;28;20049;-40
2023/04/21 11:36:42;;;;;;;6.75;3.35;;;18.60;99.90;;;;;;5073338;28;20048;-46
2023/04/21 11:39:12;;;;;;;6.65;3.33;;;18.60;99.90;;;;;;5073718;28;20052;-41
2023/04/21 11:41:43;;;;;;;8.90;3.17;;;18.70;99.90;;;;;;5073456;28;20634;-41
2023/04/21 11:44:13;;;;;;;6.50;3.00;;;18.60;99.90;;;;;;5073719;28;20455;-41
2023/04/21 11:46:45;;;;;;;5.60;3.00;;;18.60;99.90;;;;;;5073517;28;20075;-41
2023/04/21 11:49:13;;;;;;;5.82;3.03;;;18.70;99.90;;;;;;5073506;28;20048;-40
2023/04/21 11:51:40;;;;;;;7.20;3.13;;;18.70;99.90;;;;;;5073232;28;20049;-41
2023/04/21 11:54:11;;;;;;;6.15;3.10;;;18.80;99.90;;;;;;5073418;28;20476;-38
2023/04/21 11:56:42;;;;;;;7.55;3.38;;;18.90;99.90;;;;;;5073263;28;20413;-38
2023/04/21 11:59:14;;;;;;;6.88;3.30;;;18.80;99.90;;;;;;5073385;28;20056;-38
2023/04/21 12:01:47;;;;;;;7.35;3.42;;;18.80;99.90;;;;;;5073264;28;20040;-41
2023/04/21 12:04:15;;;;;;;8.35;3.28;;;18.80;99.90;;;;;;5072345;28;20091;-38
2023/04/21 12:06:42;;;;;;;5.70;3.13;;;18.90;99.90;;;;;;5073403;28;20051;-41
2023/04/21 12:09:14;;;;;;;8.48;3.40;;;18.90;99.90;;;;;;5073562;28;20057;-40
2023/04/21 12:11:40;;;;;;;6.03;3.33;;;19.00;99.90;;;;;;5073298;28;20110;-41
2023/04/21 12:14:07;;;;;;;6.22;3.72;;;19.00;99.90;;;;;;5073437;28;20041;-41
2023/04/21 12:16:36;;;;;;;6.38;3.20;;;19.10;99.90;;;;;;5072205;28;20499;-41
2023/04/21 12:19:02;;;;;;;6.03;3.13;;;19.20;99.40;;;;;;5073462;28;20123;-41
2023/04/21 12:21:28;;;;;;;5.35;2.80;;;19.20;99.90;;;;;;5072116;28;20131;-41
2023/04/21 12:23:54;;;;;;;7.57;3.05;;;19.30;99.20;;;;;;5072978;28;20118;-40
2023/04/21 12:26:21;;;;;;;5.70;3.00;;;19.10;98.60;;;;;;5072130;28;20048;-41
2023/04/21 12:28:47;;;;;;;5.65;3.13;;;19.10;98.40;;;;;;5072278;28;20087;-41
2023/04/21 12:31:13;;;;;;;6.50;2.55;;;19.20;98.60;;;;;;5072876;28;20068;-41
2023/04/21 12:33:38;;;;;;;5.80;3.22;;;19.20;97.30;;;;;;5072397;28;20139;-41
2023/04/21 12:36:04;;;;;;;5.93;3.35;;;19.10;97.70;;;;;;5073325;28;20084;-41
2023/04/21 12:38:30;;;;;;;5.93;3.20;;;19.10;97.00;;;;;;5072846;28;20056;-41
2023/04/21 12:40:56;;;;;;;9.48;3.30;;;19.00;96.00;;;;;;5075296;28;20049;-41
2023/04/21 12:43:22;;;;;;;6.38;2.92;;;18.80;96.40;;;;;;5076493;28;20055;-40
2023/04/21 12:45:48;;;;;;;6.65;2.95;;;18.70;96.30;;;;;;5076512;28;20084;-41